createdAt,value
2017-05-15T00:00:07.353Z,1003.95
2017-05-15T00:01:07.382Z,1003.94
2017-05-15T00:02:07.609Z,1003.94
2017-05-15T00:03:07.438Z,1004
2017-05-15T00:04:07.459Z,1003.96
2017-05-15T00:05:07.492Z,1003.96
2017-05-15T00:06:07.522Z,1003.97
2017-05-15T00:07:07.802Z,1003.97
2017-05-15T00:08:07.575Z,1003.98
2017-05-15T00:09:07.603Z,1004
2017-05-15T00:10:07.632Z,1003.99
2017-05-15T00:11:07.658Z,1004.01
2017-05-15T00:12:07.686Z,1003.98
2017-05-15T00:13:07.715Z,1004
2017-05-15T00:14:07.743Z,1003.97
2017-05-15T00:15:07.773Z,1003.94
2017-05-15T00:16:07.798Z,1003.98
2017-05-15T00:17:07.824Z,1003.97
2017-05-15T00:18:07.855Z,1003.97
2017-05-15T00:19:07.883Z,1004.01
2017-05-15T00:20:07.909Z,1004.01
2017-05-15T00:21:07.936Z,1004.03
2017-05-15T00:22:07.960Z,1004.09
2017-05-15T00:23:07.995Z,1004.07
2017-05-15T00:24:08.020Z,1004.06
2017-05-15T00:25:08.046Z,1004.04
2017-05-15T00:26:08.076Z,1004.11
2017-05-15T00:27:08.105Z,1004.08
2017-05-15T00:28:08.131Z,1004.09
2017-05-15T00:29:08.159Z,1004.08
2017-05-15T00:30:08.189Z,1004.05
2017-05-15T00:31:08.216Z,1004.09
2017-05-15T00:32:08.237Z,1004.1
2017-05-15T00:33:08.270Z,1004.09
2017-05-15T00:34:08.297Z,1004.11
2017-05-15T00:35:08.324Z,1004.11
2017-05-15T00:36:08.354Z,1004.08
2017-05-15T00:37:08.377Z,1004.12
2017-05-15T00:38:08.409Z,1004.1
2017-05-15T00:39:08.434Z,1004.1
2017-05-15T00:40:08.464Z,1004.12
2017-05-15T00:41:08.493Z,1004.17
2017-05-15T00:42:08.513Z,1004.13
2017-05-15T00:43:08.542Z,1004.16
2017-05-15T00:44:08.575Z,1004.2
2017-05-15T00:45:08.603Z,1004.19
2017-05-15T00:46:08.629Z,1004.18
2017-05-15T00:47:08.654Z,1004.18
2017-05-15T00:48:08.686Z,1004.19
2017-05-15T00:49:08.711Z,1004.21
2017-05-15T00:50:08.734Z,1004.27
2017-05-15T00:51:08.770Z,1004.29
2017-05-15T00:52:08.793Z,1004.3
2017-05-15T00:53:08.827Z,1004.27
2017-05-15T00:54:08.851Z,1004.3
2017-05-15T00:55:08.881Z,1004.35
2017-05-15T00:56:08.908Z,1004.37
2017-05-15T00:57:08.929Z,1004.43
2017-05-15T00:58:08.962Z,1004.42
2017-05-15T00:59:08.987Z,1004.43
2017-05-15T01:00:09.019Z,1004.4
2017-05-15T01:01:09.043Z,1004.44
2017-05-15T01:02:09.069Z,1004.42
2017-05-15T01:03:09.102Z,1004.44
2017-05-15T01:04:09.126Z,1004.41
2017-05-15T01:05:09.155Z,1004.4
2017-05-15T01:06:09.184Z,1004.44
2017-05-15T01:07:09.204Z,1004.4
2017-05-15T01:08:09.489Z,1004.43
2017-05-15T01:09:09.267Z,1004.42
2017-05-15T01:10:09.291Z,1004.44
2017-05-15T01:11:09.318Z,1004.43
2017-05-15T01:12:09.346Z,1004.44
2017-05-15T01:13:09.628Z,1004.45
2017-05-15T01:14:09.402Z,1004.46
2017-05-15T01:15:09.431Z,1004.44
2017-05-15T01:16:09.459Z,1004.42
2017-05-15T01:17:09.488Z,1004.42
2017-05-15T01:18:09.766Z,1004.45
2017-05-15T01:19:09.541Z,1004.42
2017-05-15T01:20:09.569Z,1004.45
2017-05-15T01:21:09.596Z,1004.44
2017-05-15T01:22:09.620Z,1004.42
2017-05-15T01:23:09.654Z,1004.46
2017-05-15T01:24:09.683Z,1004.42
2017-05-15T01:25:09.711Z,1004.41
2017-05-15T01:26:09.734Z,1004.45
2017-05-15T01:27:09.759Z,1004.46
2017-05-15T01:28:09.793Z,1004.46
2017-05-15T01:29:09.817Z,1004.5
2017-05-15T01:30:09.846Z,1004.53
2017-05-15T01:31:09.876Z,1004.54
2017-05-15T01:32:09.900Z,1004.55
2017-05-15T01:33:09.929Z,1004.52
2017-05-15T01:34:09.958Z,1004.54
2017-05-15T01:35:09.982Z,1004.54
2017-05-15T01:36:10.006Z,1004.51
2017-05-15T01:37:10.036Z,1004.54
2017-05-15T01:38:10.070Z,1004.58
2017-05-15T01:39:10.094Z,1004.57
2017-05-15T01:40:10.123Z,1004.54
2017-05-15T01:41:10.149Z,1004.57
2017-05-15T01:42:10.175Z,1004.54
2017-05-15T01:43:10.206Z,1004.53
2017-05-15T01:44:10.234Z,1004.56
2017-05-15T01:45:10.263Z,1004.61
2017-05-15T01:46:10.282Z,1004.61
2017-05-15T01:47:10.313Z,1004.63
2017-05-15T01:48:10.345Z,1004.64
2017-05-15T01:49:10.371Z,1004.62
2017-05-15T01:50:10.399Z,1004.63
2017-05-15T01:51:10.425Z,1004.61
2017-05-15T01:52:10.452Z,1004.63
2017-05-15T01:53:10.481Z,1004.67
2017-05-15T01:54:10.509Z,1004.66
2017-05-15T01:55:10.539Z,1004.69
2017-05-15T01:56:10.562Z,1004.72
2017-05-15T01:57:10.587Z,1004.72
2017-05-15T01:58:10.621Z,1004.74
2017-05-15T01:59:10.650Z,1004.72
2017-05-15T02:00:10.675Z,1004.73
2017-05-15T02:01:10.702Z,1004.73
2017-05-15T02:02:10.728Z,1004.76
2017-05-15T02:03:10.756Z,1004.76
2017-05-15T02:04:10.786Z,1004.74
2017-05-15T02:05:10.815Z,1004.74
2017-05-15T02:06:10.839Z,1004.72
2017-05-15T02:07:10.868Z,1004.8
2017-05-15T02:08:10.897Z,1004.8
2017-05-15T02:09:10.922Z,1004.79
2017-05-15T02:10:10.951Z,1004.81
2017-05-15T02:11:10.979Z,1004.8
2017-05-15T02:12:11.004Z,1004.81
2017-05-15T02:13:11.033Z,1004.84
2017-05-15T02:14:11.062Z,1004.87
2017-05-15T02:15:11.087Z,1004.87
2017-05-15T02:16:11.114Z,1004.9
2017-05-15T02:17:11.145Z,1004.95
2017-05-15T02:18:11.168Z,1004.93
2017-05-15T02:19:11.197Z,1004.95
2017-05-15T02:20:11.226Z,1004.94
2017-05-15T02:21:11.254Z,1004.93
2017-05-15T02:22:11.279Z,1004.92
2017-05-15T02:23:11.308Z,1004.87
2017-05-15T02:24:11.338Z,1004.81
2017-05-15T02:25:11.363Z,1004.87
2017-05-15T02:26:11.391Z,1004.85
2017-05-15T02:27:11.422Z,1004.87
2017-05-15T02:28:11.444Z,1004.89
2017-05-15T02:29:11.473Z,1004.86
2017-05-15T02:30:11.502Z,1004.88
2017-05-15T02:31:11.527Z,1004.92
2017-05-15T02:32:11.555Z,1004.91
2017-05-15T02:33:11.585Z,1004.99
2017-05-15T02:34:11.609Z,1004.94
2017-05-15T02:35:11.637Z,1004.97
2017-05-15T02:36:11.665Z,1004.98
2017-05-15T02:37:11.691Z,1004.96
2017-05-15T02:38:11.719Z,1004.96
2017-05-15T02:39:11.748Z,1005
2017-05-15T02:40:11.772Z,1005
2017-05-15T02:41:11.803Z,1004.95
2017-05-15T02:42:11.822Z,1004.99
2017-05-15T02:43:11.860Z,1005.01
2017-05-15T02:44:11.884Z,1005.02
2017-05-15T02:45:11.913Z,1005.03
2017-05-15T02:46:11.941Z,1004.99
2017-05-15T02:47:11.967Z,1005.01
2017-05-15T02:48:11.996Z,1004.98
2017-05-15T02:49:12.275Z,1004.99
2017-05-15T02:50:12.050Z,1005
2017-05-15T02:51:12.078Z,1004.98
2017-05-15T02:52:12.107Z,1005.02
2017-05-15T02:53:12.131Z,1004.99
2017-05-15T02:54:12.411Z,1005.03
2017-05-15T02:55:12.189Z,1005.05
2017-05-15T02:56:12.215Z,1004.98
2017-05-15T02:57:12.244Z,1005.02
2017-05-15T02:58:12.272Z,1005
2017-05-15T02:59:12.502Z,1004.98
2017-05-15T03:00:12.325Z,1005.02
2017-05-15T03:01:12.354Z,1005
2017-05-15T03:02:12.382Z,1005.01
2017-05-15T03:03:12.409Z,1004.99
2017-05-15T03:04:12.689Z,1004.95
2017-05-15T03:05:12.464Z,1004.99
2017-05-15T03:06:12.490Z,1004.99
2017-05-15T03:07:12.519Z,1005.04
2017-05-15T03:08:12.543Z,1005.04
2017-05-15T03:09:12.823Z,1005
2017-05-15T03:10:12.602Z,1005.06
2017-05-15T03:11:12.629Z,1005.08
2017-05-15T03:12:12.655Z,1005.06
2017-05-15T03:13:12.684Z,1005.06
2017-05-15T03:14:12.713Z,1005.09
2017-05-15T03:15:12.737Z,1005.09
2017-05-15T03:16:12.765Z,1005.1
2017-05-15T03:17:12.789Z,1005.11
2017-05-15T03:18:12.815Z,1005.1
2017-05-15T03:19:12.849Z,1005.11
2017-05-15T03:20:12.873Z,1005.13
2017-05-15T03:21:12.906Z,1005.09
2017-05-15T03:22:12.931Z,1005.11
2017-05-15T03:23:12.956Z,1005.14
2017-05-15T03:24:12.984Z,1005.12
2017-05-15T03:25:13.012Z,1005.1
2017-05-15T03:26:13.041Z,1005.1
2017-05-15T03:27:13.067Z,1005.13
2017-05-15T03:28:13.090Z,1005.13
2017-05-15T03:29:13.124Z,1005.09
2017-05-15T03:30:13.149Z,1005.1
2017-05-15T03:31:13.179Z,1005.08
2017-05-15T03:32:13.204Z,1005.12
2017-05-15T03:33:13.232Z,1005.12
2017-05-15T03:34:13.259Z,1005.11
2017-05-15T03:35:13.285Z,1005.16
2017-05-15T03:36:13.313Z,1005.2
2017-05-15T03:37:13.343Z,1005.24
2017-05-15T03:38:13.372Z,1005.19
2017-05-15T03:39:13.397Z,1005.24
2017-05-15T03:40:13.425Z,1005.19
2017-05-15T03:41:13.450Z,1005.23
2017-05-15T03:42:13.478Z,1005.25
2017-05-15T03:43:13.509Z,1005.19
2017-05-15T03:44:13.531Z,1005.23
2017-05-15T03:45:13.560Z,1005.19
2017-05-15T03:46:13.588Z,1005.2
2017-05-15T03:47:13.613Z,1005.19
2017-05-15T03:48:13.639Z,1005.24
2017-05-15T03:49:13.672Z,1005.23
2017-05-15T03:50:13.696Z,1005.22
2017-05-15T03:51:13.724Z,1005.22
2017-05-15T03:52:13.753Z,1005.23
2017-05-15T03:53:13.777Z,1005.3
2017-05-15T03:54:13.807Z,1005.31
2017-05-15T03:55:13.840Z,1005.33
2017-05-15T03:56:13.860Z,1005.32
2017-05-15T03:57:13.890Z,1005.3
2017-05-15T03:58:13.914Z,1005.3
2017-05-15T03:59:13.943Z,1005.3
2017-05-15T04:00:13.971Z,1005.29
2017-05-15T04:01:13.997Z,1005.27
2017-05-15T04:02:14.026Z,1005.29
2017-05-15T04:03:14.055Z,1005.3
2017-05-15T04:04:14.079Z,1005.3
2017-05-15T04:05:14.108Z,1005.33
2017-05-15T04:06:14.137Z,1005.35
2017-05-15T04:07:14.161Z,1005.36
2017-05-15T04:08:14.191Z,1005.35
2017-05-15T04:09:14.223Z,1005.38
2017-05-15T04:10:14.244Z,1005.37
2017-05-15T04:11:14.273Z,1005.37
2017-05-15T04:12:14.294Z,1005.36
2017-05-15T04:13:14.327Z,1005.44
2017-05-15T04:14:14.356Z,1005.38
2017-05-15T04:15:14.376Z,1005.4
2017-05-15T04:16:14.408Z,1005.43
2017-05-15T04:17:14.438Z,1005.41
2017-05-15T04:18:14.462Z,1005.44
2017-05-15T04:19:14.493Z,1005.4
2017-05-15T04:20:14.720Z,1005.4
2017-05-15T04:21:14.546Z,1005.45
2017-05-15T04:22:14.570Z,1005.45
2017-05-15T04:23:14.604Z,1005.45
2017-05-15T04:24:14.627Z,1005.45
2017-05-15T04:25:14.908Z,1005.47
2017-05-15T04:26:14.680Z,1005.43
2017-05-15T04:27:14.713Z,1005.45
2017-05-15T04:28:14.738Z,1005.46
2017-05-15T04:29:14.766Z,1005.46
2017-05-15T04:30:14.793Z,1005.48
2017-05-15T04:31:14.821Z,1005.52
2017-05-15T04:32:14.845Z,1005.51
2017-05-15T04:33:14.879Z,1005.53
2017-05-15T04:34:14.903Z,1005.54
2017-05-15T04:35:14.931Z,1005.57
2017-05-15T04:36:14.958Z,1005.59
2017-05-15T04:37:14.985Z,1005.59
2017-05-15T04:38:15.009Z,1005.57
2017-05-15T04:39:15.034Z,1005.56
2017-05-15T04:40:15.067Z,1005.57
2017-05-15T04:41:15.093Z,1005.62
2017-05-15T04:42:15.122Z,1005.56
2017-05-15T04:43:15.151Z,1005.62
2017-05-15T04:44:15.173Z,1005.61
2017-05-15T04:45:15.203Z,1005.6
2017-05-15T04:46:15.232Z,1005.55
2017-05-15T04:47:15.257Z,1005.59
2017-05-15T04:48:15.286Z,1005.58
2017-05-15T04:49:15.307Z,1005.58
2017-05-15T04:50:15.339Z,1005.59
2017-05-15T04:51:15.368Z,1005.59
2017-05-15T04:52:15.392Z,1005.61
2017-05-15T04:53:15.445Z,1005.56
2017-05-15T04:54:15.446Z,1005.57
2017-05-15T04:55:15.474Z,1005.56
2017-05-15T04:56:15.504Z,1005.55
2017-05-15T04:57:15.535Z,1005.54
2017-05-15T04:58:15.557Z,1005.47
2017-05-15T04:59:15.582Z,1005.49
2017-05-15T05:00:15.611Z,1005.51
2017-05-15T05:01:15.640Z,1005.47
2017-05-15T05:02:15.669Z,1005.5
2017-05-15T05:03:15.694Z,1005.51
2017-05-15T05:04:15.724Z,1005.54
2017-05-15T05:05:15.752Z,1005.57
2017-05-15T05:06:15.776Z,1005.55
2017-05-15T05:07:15.804Z,1005.57
2017-05-15T05:08:15.856Z,1005.6
2017-05-15T05:09:15.858Z,1005.61
2017-05-15T05:10:15.886Z,1005.59
2017-05-15T05:11:15.916Z,1005.58
2017-05-15T05:12:15.941Z,1005.59
2017-05-15T05:13:15.971Z,1005.59
2017-05-15T05:14:15.996Z,1005.62
2017-05-15T05:15:16.064Z,1005.59
2017-05-15T05:16:16.054Z,1005.63
2017-05-15T05:17:16.077Z,1005.62
2017-05-15T05:18:16.105Z,1005.69
2017-05-15T05:19:16.135Z,1005.69
2017-05-15T05:20:16.158Z,1005.75
2017-05-15T05:21:16.188Z,1005.74
2017-05-15T05:22:16.217Z,1005.76
2017-05-15T05:23:16.241Z,1005.75
2017-05-15T05:24:16.268Z,1005.77
2017-05-15T05:25:16.298Z,1005.77
2017-05-15T05:26:16.324Z,1005.75
2017-05-15T05:27:16.353Z,1005.79
2017-05-15T05:28:16.377Z,1005.78
2017-05-15T05:29:16.406Z,1005.8
2017-05-15T05:30:16.434Z,1005.85
2017-05-15T05:31:16.463Z,1005.82
2017-05-15T05:32:16.488Z,1005.83
2017-05-15T05:33:16.518Z,1005.86
2017-05-15T05:34:16.547Z,1005.87
2017-05-15T05:35:16.566Z,1005.86
2017-05-15T05:36:16.600Z,1005.92
2017-05-15T05:37:16.624Z,1005.88
2017-05-15T05:38:16.653Z,1005.92
2017-05-15T05:39:16.679Z,1005.92
2017-05-15T05:40:16.702Z,1005.95
2017-05-15T05:41:16.726Z,1005.93
2017-05-15T05:42:16.765Z,1005.96
2017-05-15T05:43:16.788Z,1005.95
2017-05-15T05:44:16.827Z,1005.99
2017-05-15T05:45:16.846Z,1005.97
2017-05-15T05:46:16.867Z,1006.01
2017-05-15T05:47:16.901Z,1006.03
2017-05-15T05:48:16.928Z,1005.99
2017-05-15T05:49:16.954Z,1006.03
2017-05-15T05:50:16.978Z,1006
2017-05-15T05:51:17.008Z,1006.06
2017-05-15T05:52:17.036Z,1006.04
2017-05-15T05:53:17.064Z,1006.03
2017-05-15T05:54:17.091Z,1006.05
2017-05-15T05:55:17.118Z,1006.05
2017-05-15T05:56:17.146Z,1006.11
2017-05-15T05:57:17.176Z,1006.09
2017-05-15T05:58:17.200Z,1006.14
2017-05-15T05:59:17.229Z,1006.11
2017-05-15T06:00:17.250Z,1006.12
2017-05-15T06:01:17.283Z,1006.19
2017-05-15T06:02:17.312Z,1006.17
2017-05-15T06:03:17.341Z,1006.19
2017-05-15T06:04:17.366Z,1006.18
2017-05-15T06:05:17.394Z,1006.18
2017-05-15T06:06:17.422Z,1006.22
2017-05-15T06:07:17.448Z,1006.21
2017-05-15T06:08:17.476Z,1006.26
2017-05-15T06:09:17.505Z,1006.24
2017-05-15T06:10:17.527Z,1006.25
2017-05-15T06:11:17.558Z,1006.27
2017-05-15T06:12:17.586Z,1006.25
2017-05-15T06:13:17.612Z,1006.27
2017-05-15T06:14:17.640Z,1006.29
2017-05-15T06:15:17.666Z,1006.3
2017-05-15T06:16:17.695Z,1006.33
2017-05-15T06:17:17.723Z,1006.34
2017-05-15T06:18:17.752Z,1006.3
2017-05-15T06:19:17.777Z,1006.33
2017-05-15T06:20:17.802Z,1006.33
2017-05-15T06:21:17.833Z,1006.31
2017-05-15T06:22:17.862Z,1006.3
2017-05-15T06:23:17.889Z,1006.33
2017-05-15T06:24:17.916Z,1006.33
2017-05-15T06:25:17.941Z,1006.31
2017-05-15T06:26:17.970Z,1006.36
2017-05-15T06:27:17.999Z,1006.34
2017-05-15T06:28:18.034Z,1006.34
2017-05-15T06:29:18.053Z,1006.38
2017-05-15T06:30:18.077Z,1006.39
2017-05-15T06:31:18.110Z,1006.35
2017-05-15T06:32:18.135Z,1006.37
2017-05-15T06:33:18.163Z,1006.37
2017-05-15T06:34:18.193Z,1006.35
2017-05-15T06:35:18.218Z,1006.38
2017-05-15T06:36:18.244Z,1006.37
2017-05-15T06:37:18.275Z,1006.4
2017-05-15T06:38:18.305Z,1006.35
2017-05-15T06:39:18.329Z,1006.34
2017-05-15T06:40:18.354Z,1006.36
2017-05-15T06:41:18.386Z,1006.38
2017-05-15T06:42:18.410Z,1006.36
2017-05-15T06:43:18.440Z,1006.34
2017-05-15T06:44:18.468Z,1006.38
2017-05-15T06:45:18.493Z,1006.39
2017-05-15T06:46:18.521Z,1006.41
2017-05-15T06:47:18.550Z,1006.39
2017-05-15T06:48:18.579Z,1006.37
2017-05-15T06:49:18.604Z,1006.4
2017-05-15T06:50:18.633Z,1006.43
2017-05-15T06:51:18.657Z,1006.42
2017-05-15T06:52:18.686Z,1006.41
2017-05-15T06:53:18.715Z,1006.41
2017-05-15T06:54:18.739Z,1006.41
2017-05-15T06:55:18.768Z,1006.42
2017-05-15T06:56:18.792Z,1006.46
2017-05-15T06:57:18.826Z,1006.45
2017-05-15T06:58:18.855Z,1006.47
2017-05-15T06:59:18.884Z,1006.49
2017-05-15T07:00:18.908Z,1006.5
2017-05-15T07:01:18.937Z,1006.48
2017-05-15T07:02:18.966Z,1006.51
2017-05-15T07:03:18.990Z,1006.53
2017-05-15T07:04:19.019Z,1006.53
2017-05-15T07:05:19.051Z,1006.53
2017-05-15T07:06:19.072Z,1006.56
2017-05-15T07:07:19.102Z,1006.6
2017-05-15T07:08:19.130Z,1006.59
2017-05-15T07:09:19.160Z,1006.55
2017-05-15T07:10:19.185Z,1006.6
2017-05-15T07:11:19.213Z,1006.56
2017-05-15T07:12:19.242Z,1006.59
2017-05-15T07:13:19.271Z,1006.61
2017-05-15T07:14:19.295Z,1006.61
2017-05-15T07:15:19.325Z,1006.63
2017-05-15T07:16:19.352Z,1006.62
2017-05-15T07:17:19.381Z,1006.62
2017-05-15T07:18:19.406Z,1006.62
2017-05-15T07:19:19.435Z,1006.63
2017-05-15T07:20:19.464Z,1006.61
2017-05-15T07:21:19.493Z,1006.64
2017-05-15T07:22:19.517Z,1006.65
2017-05-15T07:23:19.546Z,1006.63
2017-05-15T07:24:19.575Z,1006.66
2017-05-15T07:25:19.599Z,1006.68
2017-05-15T07:26:19.627Z,1006.65
2017-05-15T07:27:19.657Z,1006.67
2017-05-15T07:28:19.685Z,1006.7
2017-05-15T07:29:19.709Z,1006.67
2017-05-15T07:30:19.739Z,1006.68
2017-05-15T07:31:19.769Z,1006.66
2017-05-15T07:32:19.798Z,1006.66
2017-05-15T07:33:19.822Z,1006.69
2017-05-15T07:34:19.850Z,1006.68
2017-05-15T07:35:19.879Z,1006.67
2017-05-15T07:36:19.909Z,1006.66
2017-05-15T07:37:19.933Z,1006.66
2017-05-15T07:38:19.960Z,1006.64
2017-05-15T07:39:19.989Z,1006.7
2017-05-15T07:40:20.015Z,1006.67
2017-05-15T07:41:20.043Z,1006.67
2017-05-15T07:42:20.073Z,1006.67
2017-05-15T07:43:20.100Z,1006.68
2017-05-15T07:44:20.129Z,1006.7
2017-05-15T07:45:20.158Z,1006.68
2017-05-15T07:46:20.188Z,1006.66
2017-05-15T07:47:20.209Z,1006.66
2017-05-15T07:48:20.242Z,1006.68
2017-05-15T07:49:20.271Z,1006.66
2017-05-15T07:50:20.299Z,1006.66
2017-05-15T07:51:20.324Z,1006.67
2017-05-15T07:52:20.352Z,1006.65
2017-05-15T07:53:20.381Z,1006.64
2017-05-15T07:54:20.404Z,1006.67
2017-05-15T07:55:20.433Z,1006.64
2017-05-15T07:56:20.462Z,1006.63
2017-05-15T07:57:20.491Z,1006.63
2017-05-15T07:58:20.516Z,1006.63
2017-05-15T07:59:20.546Z,1006.67
2017-05-15T08:00:20.574Z,1006.72
2017-05-15T08:01:20.603Z,1006.7
2017-05-15T08:02:20.632Z,1006.71
2017-05-15T08:03:20.656Z,1006.73
2017-05-15T08:04:20.684Z,1006.7
2017-05-15T08:05:20.710Z,1006.69
2017-05-15T08:06:20.743Z,1006.7
2017-05-15T08:07:20.773Z,1006.7
2017-05-15T08:08:20.796Z,1006.7
2017-05-15T08:09:20.826Z,1006.7
2017-05-15T08:10:20.854Z,1006.7
2017-05-15T08:11:20.883Z,1006.71
2017-05-15T08:12:20.913Z,1006.71
2017-05-15T08:13:20.935Z,1006.74
2017-05-15T08:14:20.971Z,1006.74
2017-05-15T08:15:20.994Z,1006.76
2017-05-15T08:16:21.019Z,1006.78
2017-05-15T08:17:21.046Z,1006.81
2017-05-15T08:18:21.073Z,1006.82
2017-05-15T08:19:21.106Z,1006.8
2017-05-15T08:20:21.133Z,1006.8
2017-05-15T08:21:21.158Z,1006.78
2017-05-15T08:22:21.187Z,1006.83
2017-05-15T08:23:21.217Z,1006.83
2017-05-15T08:24:21.245Z,1006.85
2017-05-15T08:25:21.274Z,1006.86
2017-05-15T08:26:21.297Z,1006.86
2017-05-15T08:27:21.325Z,1006.88
2017-05-15T08:28:21.356Z,1006.89
2017-05-15T08:29:21.385Z,1006.9
2017-05-15T08:30:21.414Z,1006.92
2017-05-15T08:31:21.438Z,1006.9
2017-05-15T08:32:21.467Z,1006.9
2017-05-15T08:33:21.495Z,1006.93
2017-05-15T08:34:21.524Z,1006.93
2017-05-15T08:35:21.549Z,1006.97
2017-05-15T08:36:21.574Z,1006.95
2017-05-15T08:37:21.607Z,1006.96
2017-05-15T08:38:21.635Z,1006.96
2017-05-15T08:39:21.663Z,1006.98
2017-05-15T08:40:21.693Z,1006.97
2017-05-15T08:41:21.970Z,1007.04
2017-05-15T08:42:21.747Z,1007.09
2017-05-15T08:43:21.773Z,1007.1
2017-05-15T08:44:21.805Z,1007.15
2017-05-15T08:45:21.832Z,1007.17
2017-05-15T08:46:21.858Z,1007.12
2017-05-15T08:47:21.886Z,1007.1
2017-05-15T08:48:21.915Z,1007.12
2017-05-15T08:49:21.944Z,1007.08
2017-05-15T08:50:21.968Z,1007.08
2017-05-15T08:51:21.996Z,1007.11
2017-05-15T08:52:22.027Z,1007.18
2017-05-15T08:53:22.053Z,1007.12
2017-05-15T08:54:22.082Z,1007.13
2017-05-15T08:55:22.112Z,1007.15
2017-05-15T08:56:22.140Z,1007.14
2017-05-15T08:57:22.164Z,1007.11
2017-05-15T08:58:22.193Z,1007.09
2017-05-15T08:59:22.220Z,1007.13
2017-05-15T09:00:22.253Z,1007.14
2017-05-15T09:01:22.277Z,1007.15
2017-05-15T09:02:22.306Z,1007.16
2017-05-15T09:03:22.334Z,1007.16
2017-05-15T09:04:22.364Z,1007.15
2017-05-15T09:05:22.392Z,1007.16
2017-05-15T09:06:22.420Z,1007.15
2017-05-15T09:07:22.452Z,1007.16
2017-05-15T09:08:22.474Z,1007.17
2017-05-15T09:09:22.503Z,1007.2
2017-05-15T09:10:22.532Z,1007.2
2017-05-15T09:11:22.560Z,1007.21
2017-05-15T09:12:22.588Z,1007.14
2017-05-15T09:13:22.618Z,1007.14
2017-05-15T09:14:22.638Z,1007.16
2017-05-15T09:15:22.671Z,1007.17
2017-05-15T09:16:22.700Z,1007.18
2017-05-15T09:17:22.729Z,1007.17
2017-05-15T09:18:22.757Z,1007.21
2017-05-15T09:19:22.787Z,1007.28
2017-05-15T09:20:22.815Z,1007.26
2017-05-15T09:21:22.844Z,1007.23
2017-05-15T09:22:22.868Z,1007.27
2017-05-15T09:23:22.899Z,1007.27
2017-05-15T09:24:22.926Z,1007.2
2017-05-15T09:25:22.954Z,1007.25
2017-05-15T09:26:22.985Z,1007.23
2017-05-15T09:27:23.023Z,1007.24
2017-05-15T09:28:23.053Z,1007.22
2017-05-15T09:29:23.081Z,1007.21
2017-05-15T09:30:23.095Z,1007.23
2017-05-15T09:31:23.125Z,1007.26
2017-05-15T09:32:23.153Z,1007.26
2017-05-15T09:33:23.181Z,1007.26
2017-05-15T09:34:23.211Z,1007.27
2017-05-15T09:35:23.240Z,1007.33
2017-05-15T09:36:23.267Z,1007.3
2017-05-15T09:37:23.287Z,1007.26
2017-05-15T09:38:23.316Z,1007.27
2017-05-15T09:39:23.350Z,1007.29
2017-05-15T09:40:23.378Z,1007.31
2017-05-15T09:41:23.407Z,1007.29
2017-05-15T09:42:23.436Z,1007.28
2017-05-15T09:43:23.461Z,1007.26
2017-05-15T09:44:23.490Z,1007.27
2017-05-15T09:45:23.518Z,1007.27
2017-05-15T09:46:23.547Z,1007.21
2017-05-15T09:47:23.577Z,1007.23
2017-05-15T09:48:23.601Z,1007.23
2017-05-15T09:49:23.633Z,1007.22
2017-05-15T09:50:23.662Z,1007.17
2017-05-15T09:51:23.684Z,1007.19
2017-05-15T09:52:23.715Z,1007.22
2017-05-15T09:53:23.745Z,1007.19
2017-05-15T09:54:23.774Z,1007.17
2017-05-15T09:55:23.802Z,1007.16
2017-05-15T09:56:23.830Z,1007.18
2017-05-15T09:57:23.859Z,1007.22
2017-05-15T09:58:23.888Z,1007.19
2017-05-15T09:59:23.917Z,1007.2
2017-05-15T10:00:23.941Z,1007.16
2017-05-15T10:01:23.970Z,1007.19
2017-05-15T10:02:23.999Z,1007.23
2017-05-15T10:03:24.028Z,1007.2
2017-05-15T10:04:24.059Z,1007.25
2017-05-15T10:05:24.086Z,1007.21
2017-05-15T10:06:24.114Z,1007.15
2017-05-15T10:07:24.139Z,1007.14
2017-05-15T10:08:24.173Z,1007.17
2017-05-15T10:09:24.201Z,1007.09
2017-05-15T10:10:24.226Z,1007.13
2017-05-15T10:11:24.253Z,1007.07
2017-05-15T10:12:24.280Z,1007.13
2017-05-15T10:13:24.311Z,1007.11
2017-05-15T10:14:24.340Z,1007.15
2017-05-15T10:15:24.370Z,1007.15
2017-05-15T10:16:24.399Z,1007.11
2017-05-15T10:17:24.626Z,1007.13
2017-05-15T10:18:24.456Z,1007.07
2017-05-15T10:19:24.485Z,1007.11
2017-05-15T10:20:24.514Z,1007.08
2017-05-15T10:21:24.537Z,1007.06
2017-05-15T10:22:24.819Z,1007.11
2017-05-15T10:23:24.595Z,1007.1
2017-05-15T10:24:24.623Z,1007.08
2017-05-15T10:25:24.653Z,1007.1
2017-05-15T10:26:24.681Z,1007.18
2017-05-15T10:27:25.006Z,1007.14
2017-05-15T10:28:24.739Z,1007.15
2017-05-15T10:29:24.768Z,1007.12
2017-05-15T10:30:24.796Z,1007.04
2017-05-15T10:31:24.822Z,1007.04
2017-05-15T10:32:24.855Z,1007.07
2017-05-15T10:33:24.883Z,1007.02
2017-05-15T10:34:24.912Z,1007.03
2017-05-15T10:35:24.937Z,1007.02
2017-05-15T10:36:24.961Z,1007.09
2017-05-15T10:37:24.992Z,1007.08
2017-05-15T10:38:25.023Z,1007.13
2017-05-15T10:39:25.053Z,1007.08
2017-05-15T10:40:25.081Z,1007.1
2017-05-15T10:41:25.105Z,1007.07
2017-05-15T10:42:25.137Z,1007.08
2017-05-15T10:43:25.166Z,1007.06
2017-05-15T10:44:25.195Z,1007.08
2017-05-15T10:45:25.224Z,1007.03
2017-05-15T10:46:25.253Z,1007.06
2017-05-15T10:47:25.281Z,1007.09
2017-05-15T10:48:25.303Z,1007.06
2017-05-15T10:49:25.336Z,1007.1
2017-05-15T10:50:25.369Z,1007.1
2017-05-15T10:51:25.399Z,1007.05
2017-05-15T10:52:25.426Z,1007.02
2017-05-15T10:53:25.455Z,1007.05
2017-05-15T10:54:25.479Z,1007
2017-05-15T10:55:25.508Z,1007.05
2017-05-15T10:56:25.541Z,1007.04
2017-05-15T10:57:25.570Z,1007.01
2017-05-15T10:58:25.600Z,1007.01
2017-05-15T10:59:25.628Z,1006.97
2017-05-15T11:00:25.656Z,1006.94
2017-05-15T11:01:25.683Z,1006.93
2017-05-15T11:02:25.710Z,1006.94
2017-05-15T11:03:25.738Z,1006.93
2017-05-15T11:04:25.767Z,1006.89
2017-05-15T11:05:25.796Z,1006.85
2017-05-15T11:06:25.825Z,1006.84
2017-05-15T11:07:25.857Z,1006.82
2017-05-15T11:08:25.882Z,1006.81
2017-05-15T11:09:25.910Z,1006.8
2017-05-15T11:10:25.939Z,1006.81
2017-05-15T11:11:25.969Z,1006.77
2017-05-15T11:12:25.997Z,1006.83
2017-05-15T11:13:26.021Z,1006.84
2017-05-15T11:14:26.055Z,1006.82
2017-05-15T11:15:26.080Z,1006.84
2017-05-15T11:16:26.113Z,1006.8
2017-05-15T11:17:26.141Z,1006.79
2017-05-15T11:18:26.171Z,1006.77
2017-05-15T11:19:26.198Z,1006.75
2017-05-15T11:20:26.227Z,1006.76
2017-05-15T11:21:26.256Z,1006.8
2017-05-15T11:22:26.284Z,1006.77
2017-05-15T11:23:26.313Z,1006.74
2017-05-15T11:24:26.343Z,1006.83
2017-05-15T11:25:26.370Z,1006.83
2017-05-15T11:26:26.399Z,1006.85
2017-05-15T11:27:26.429Z,1006.82
2017-05-15T11:28:26.657Z,1006.83
2017-05-15T11:29:26.485Z,1006.91
2017-05-15T11:30:26.515Z,1006.96
2017-05-15T11:31:26.550Z,1006.96
2017-05-15T11:32:26.572Z,1006.98
2017-05-15T11:33:26.801Z,1006.97
2017-05-15T11:34:26.631Z,1007.01
2017-05-15T11:35:26.659Z,1006.97
2017-05-15T11:36:26.688Z,1007
2017-05-15T11:37:26.715Z,1007.11
2017-05-15T11:38:26.941Z,1007.07
2017-05-15T11:39:26.778Z,1007.02
2017-05-15T11:40:26.807Z,1007.02
2017-05-15T11:41:26.835Z,1007.04
2017-05-15T11:42:26.864Z,1007.08
2017-05-15T11:43:26.893Z,1007.04
2017-05-15T11:44:26.959Z,1007.05
2017-05-15T11:45:26.955Z,1007.11
2017-05-15T11:46:26.982Z,1007.08
2017-05-15T11:47:27.008Z,1007.08
2017-05-15T11:48:27.041Z,1007.08
2017-05-15T11:49:27.074Z,1007.09
2017-05-15T11:50:27.102Z,1007.05
2017-05-15T11:51:27.137Z,1006.88
2017-05-15T11:52:27.165Z,1006.8
2017-05-15T11:53:27.197Z,1006.81
2017-05-15T11:54:27.225Z,1006.93
2017-05-15T11:55:27.259Z,1006.89
2017-05-15T11:56:27.283Z,1006.97
2017-05-15T11:57:27.319Z,1007.01
2017-05-15T11:58:27.347Z,1007.01
2017-05-15T11:59:27.375Z,1007.04
2017-05-15T12:00:27.406Z,1007.11
2017-05-15T12:01:27.443Z,1007.06
2017-05-15T12:02:27.471Z,1007.06
2017-05-15T12:03:27.503Z,1007.09
2017-05-15T12:04:27.532Z,1007.12
2017-05-15T12:05:27.565Z,1006.97
2017-05-15T12:06:27.598Z,1007.13
2017-05-15T12:07:27.627Z,1006.86
2017-05-15T12:08:27.660Z,1006.82
2017-05-15T12:09:27.692Z,1007.02